sensor_id;sensor_type;location;lat;lon;timestamp;temperature;humidity
70676;DHT22;59069;52.242;20.900;2022-07-29T00:02:06;17.56;64.59
70676;DHT22;59069;52.242;20.900;2022-07-29T00:04:34;17.52;64.83
70676;DHT22;59069;52.242;20.900;2022-07-29T00:07:00;17.50;64.88
70676;DHT22;59069;52.242;20.900;2022-07-29T00:09:25;17.50;64.94
70676;DHT22;59069;52.242;20.900;2022-07-29T00:11:50;17.49;65.02
70676;DHT22;59069;52.242;20.900;2022-07-29T00:14:16;17.43;65.22
70676;DHT22;59069;52.242;20.900;2022-07-29T00:16:41;17.38;65.38
70676;DHT22;59069;52.242;20.900;2022-07-29T00:19:06;17.36;65.53
70676;DHT22;59069;52.242;20.900;2022-07-29T00:21:32;17.32;65.65
70676;DHT22;59069;52.242;20.900;2022-07-29T00:23:57;17.28;65.85
70676;DHT22;59069;52.242;20.900;2022-07-29T00:26:23;17.26;66.03
70676;DHT22;59069;52.242;20.900;2022-07-29T00:28:48;17.22;66.20
70676;DHT22;59069;52.242;20.900;2022-07-29T00:31:14;17.20;66.30
70676;DHT22;59069;52.242;20.900;2022-07-29T00:33:39;17.16;66.48
70676;DHT22;59069;52.242;20.900;2022-07-29T00:36:04;17.14;66.70
70676;DHT22;59069;52.242;20.900;2022-07-29T00:38:30;17.15;66.80
70676;DHT22;59069;52.242;20.900;2022-07-29T00:40:55;17.09;66.96
70676;DHT22;59069;52.242;20.900;2022-07-29T00:43:21;17.08;67.09
70676;DHT22;59069;52.242;20.900;2022-07-29T00:45:46;17.05;67.25
70676;DHT22;59069;52.242;20.900;2022-07-29T00:48:11;17.02;67.42
70676;DHT22;59069;52.242;20.900;2022-07-29T00:50:37;16.99;67.58
70676;DHT22;59069;52.242;20.900;2022-07-29T00:53:05;16.95;67.79
70676;DHT22;59069;52.242;20.900;2022-07-29T00:55:31;16.94;67.90
70676;DHT22;59069;52.242;20.900;2022-07-29T00:57:58;16.92;68.07
70676;DHT22;59069;52.242;20.900;2022-07-29T01:00:25;16.89;68.19
70676;DHT22;59069;52.242;20.900;2022-07-29T01:02:51;16.89;68.32
70676;DHT22;59069;52.242;20.900;2022-07-29T01:05:19;16.87;68.44
70676;DHT22;59069;52.242;20.900;2022-07-29T01:07:45;16.84;68.59
70676;DHT22;59069;52.242;20.900;2022-07-29T01:10:12;16.85;68.66
70676;DHT22;59069;52.242;20.900;2022-07-29T01:12:39;16.82;68.75
70676;DHT22;59069;52.242;20.900;2022-07-29T01:15:06;16.79;68.89
70676;DHT22;59069;52.242;20.900;2022-07-29T01:17:50;16.78;69.03
70676;DHT22;59069;52.242;20.900;2022-07-29T01:20:23;16.74;69.19
70676;DHT22;59069;52.242;20.900;2022-07-29T01:23:07;16.72;69.29
70676;DHT22;59069;52.242;20.900;2022-07-29T01:30:51;16.64;69.58
70676;DHT22;59069;52.242;20.900;2022-07-29T01:33:17;16.63;69.62
70676;DHT22;59069;52.242;20.900;2022-07-29T01:36:07;16.63;69.78
70676;DHT22;59069;52.242;20.900;2022-07-29T01:38:38;16.61;69.89
70676;DHT22;59069;52.242;20.900;2022-07-29T01:41:09;16.54;69.97
70676;DHT22;59069;52.242;20.900;2022-07-29T01:43:42;16.56;70.12
70676;DHT22;59069;52.242;20.900;2022-07-29T01:46:13;16.51;70.27
70676;DHT22;59069;52.242;20.900;2022-07-29T01:48:47;16.50;70.43
70676;DHT22;59069;52.242;20.900;2022-07-29T01:51:20;16.48;70.62
70676;DHT22;59069;52.242;20.900;2022-07-29T01:56:35;16.43;70.92
70676;DHT22;59069;52.242;20.900;2022-07-29T01:59:03;16.43;71.02
70676;DHT22;59069;52.242;20.900;2022-07-29T02:01:31;16.41;71.14
70676;DHT22;59069;52.242;20.900;2022-07-29T02:03:58;16.38;71.24
70676;DHT22;59069;52.242;20.900;2022-07-29T02:06:25;16.34;71.42
70676;DHT22;59069;52.242;20.900;2022-07-29T02:08:52;16.34;71.55
70676;DHT22;59069;52.242;20.900;2022-07-29T02:11:18;16.30;71.70
70676;DHT22;59069;52.242;20.900;2022-07-29T02:13:44;16.31;71.82
70676;DHT22;59069;52.242;20.900;2022-07-29T02:16:10;16.29;71.97
70676;DHT22;59069;52.242;20.900;2022-07-29T02:18:38;16.27;72.11
70676;DHT22;59069;52.242;20.900;2022-07-29T02:21:06;16.27;72.23
70676;DHT22;59069;52.242;20.900;2022-07-29T02:23:33;16.24;72.47
70676;DHT22;59069;52.242;20.900;2022-07-29T02:26:00;16.23;72.63
70676;DHT22;59069;52.242;20.900;2022-07-29T02:28:28;16.21;72.77
70676;DHT22;59069;52.242;20.900;2022-07-29T02:30:59;16.19;72.86
70676;DHT22;59069;52.242;20.900;2022-07-29T02:33:26;16.14;73.06
70676;DHT22;59069;52.242;20.900;2022-07-29T02:35:52;16.13;73.17
70676;DHT22;59069;52.242;20.900;2022-07-29T02:38:20;16.12;73.19
70676;DHT22;59069;52.242;20.900;2022-07-29T02:41:26;16.10;73.40
70676;DHT22;59069;52.242;20.900;2022-07-29T02:43:55;16.06;73.50
70676;DHT22;59069;52.242;20.900;2022-07-29T02:46:27;16.07;73.63
70676;DHT22;59069;52.242;20.900;2022-07-29T02:51:33;16.02;73.90
70676;DHT22;59069;52.242;20.900;2022-07-29T02:54:05;16.02;74.00
70676;DHT22;59069;52.242;20.900;2022-07-29T02:56:33;16.00;74.11
70676;DHT22;59069;52.242;20.900;2022-07-29T02:59:06;16.02;74.24
70676;DHT22;59069;52.242;20.900;2022-07-29T03:01:33;16.00;74.35
70676;DHT22;59069;52.242;20.900;2022-07-29T03:04:01;15.99;74.44
70676;DHT22;59069;52.242;20.900;2022-07-29T03:06:28;16.02;74.64
70676;DHT22;59069;52.242;20.900;2022-07-29T03:08:54;16.00;74.64
70676;DHT22;59069;52.242;20.900;2022-07-29T03:11:20;15.99;74.80
70676;DHT22;59069;52.242;20.900;2022-07-29T03:13:46;16.03;74.93
70676;DHT22;59069;52.242;20.900;2022-07-29T03:16:12;16.03;75.00
70676;DHT22;59069;52.242;20.900;2022-07-29T03:18:39;16.06;75.03
70676;DHT22;59069;52.242;20.900;2022-07-29T03:21:04;16.10;75.05
70676;DHT22;59069;52.242;20.900;2022-07-29T03:23:30;16.10;75.11
70676;DHT22;59069;52.242;20.900;2022-07-29T03:25:56;16.14;75.16
70676;DHT22;59069;52.242;20.900;2022-07-29T03:28:22;16.17;75.18
70676;DHT22;59069;52.242;20.900;2022-07-29T03:30:49;16.17;75.31
70676;DHT22;59069;52.242;20.900;2022-07-29T03:33:14;16.20;75.39
70676;DHT22;59069;52.242;20.900;2022-07-29T03:35:40;16.21;75.46
70676;DHT22;59069;52.242;20.900;2022-07-29T03:38:06;16.21;75.60
70676;DHT22;59069;52.242;20.900;2022-07-29T03:40:37;16.21;75.82
70676;DHT22;59069;52.242;20.900;2022-07-29T03:43:03;16.27;75.91
70676;DHT22;59069;52.242;20.900;2022-07-29T03:45:31;16.30;75.86
70676;DHT22;59069;52.242;20.900;2022-07-29T03:48:02;16.34;75.84
70676;DHT22;59069;52.242;20.900;2022-07-29T03:50:30;16.40;75.90
70676;DHT22;59069;52.242;20.900;2022-07-29T03:52:58;16.43;75.92
70676;DHT22;59069;52.242;20.900;2022-07-29T03:55:24;16.46;75.91
70676;DHT22;59069;52.242;20.900;2022-07-29T03:57:51;16.50;75.86
70676;DHT22;59069;52.242;20.900;2022-07-29T04:00:17;16.56;75.86
70676;DHT22;59069;52.242;20.900;2022-07-29T04:02:43;16.60;75.78
70676;DHT22;59069;52.242;20.900;2022-07-29T04:05:14;16.65;75.62
70676;DHT22;59069;52.242;20.900;2022-07-29T04:07:43;16.68;75.59
70676;DHT22;59069;52.242;20.900;2022-07-29T04:10:09;16.72;75.51
70676;DHT22;59069;52.242;20.900;2022-07-29T04:12:35;16.74;75.47
70676;DHT22;59069;52.242;20.900;2022-07-29T04:15:02;16.81;75.55
70676;DHT22;59069;52.242;20.900;2022-07-29T04:17:27;16.82;75.50
70676;DHT22;59069;52.242;20.900;2022-07-29T04:19:53;16.88;75.46
70676;DHT22;59069;52.242;20.900;2022-07-29T04:22:18;16.92;75.37
70676;DHT22;59069;52.242;20.900;2022-07-29T04:24:43;16.99;75.26
70676;DHT22;59069;52.242;20.900;2022-07-29T04:27:09;17.02;74.94
70676;DHT22;59069;52.242;20.900;2022-07-29T04:29:34;17.07;74.87
70676;DHT22;59069;52.242;20.900;2022-07-29T04:32:00;17.12;74.73
70676;DHT22;59069;52.242;20.900;2022-07-29T04:34:26;17.19;74.64
70676;DHT22;59069;52.242;20.900;2022-07-29T04:36:51;17.28;74.47
70676;DHT22;59069;52.242;20.900;2022-07-29T04:39:16;17.33;74.42
70676;DHT22;59069;52.242;20.900;2022-07-29T04:41:43;17.40;74.19
70676;DHT22;59069;52.242;20.900;2022-07-29T04:44:08;17.43;74.03
70676;DHT22;59069;52.242;20.900;2022-07-29T04:46:34;17.50;73.87
70676;DHT22;59069;52.242;20.900;2022-07-29T04:49:01;17.57;73.58
70676;DHT22;59069;52.242;20.900;2022-07-29T04:51:26;17.67;73.39
70676;DHT22;59069;52.242;20.900;2022-07-29T04:53:51;17.73;73.22
70676;DHT22;59069;52.242;20.900;2022-07-29T04:56:17;17.81;73.08
70676;DHT22;59069;52.242;20.900;2022-07-29T04:58:42;17.87;72.68
70676;DHT22;59069;52.242;20.900;2022-07-29T05:01:08;17.96;72.46
70676;DHT22;59069;52.242;20.900;2022-07-29T05:03:33;18.02;72.20
70676;DHT22;59069;52.242;20.900;2022-07-29T05:05:59;18.10;71.96
70676;DHT22;59069;52.242;20.900;2022-07-29T05:08:24;18.17;71.78
70676;DHT22;59069;52.242;20.900;2022-07-29T05:10:49;18.25;71.44
70676;DHT22;59069;52.242;20.900;2022-07-29T05:13:15;18.31;71.29
70676;DHT22;59069;52.242;20.900;2022-07-29T05:15:41;18.40;70.96
70676;DHT22;59069;52.242;20.900;2022-07-29T05:18:06;18.42;70.67
70676;DHT22;59069;52.242;20.900;2022-07-29T05:20:32;18.48;70.27
70676;DHT22;59069;52.242;20.900;2022-07-29T05:23:00;18.52;70.16
70676;DHT22;59069;52.242;20.900;2022-07-29T05:25:27;18.58;70.07
70676;DHT22;59069;52.242;20.900;2022-07-29T05:27:53;18.65;69.83
70676;DHT22;59069;52.242;20.900;2022-07-29T05:30:19;18.79;69.64
70676;DHT22;59069;52.242;20.900;2022-07-29T05:32:45;18.85;69.38
70676;DHT22;59069;52.242;20.900;2022-07-29T05:35:12;18.99;69.03
70676;DHT22;59069;52.242;20.900;2022-07-29T05:37:37;19.04;68.75
70676;DHT22;59069;52.242;20.900;2022-07-29T05:40:03;19.12;68.01
70676;DHT22;59069;52.242;20.900;2022-07-29T05:42:29;19.13;67.27
70676;DHT22;59069;52.242;20.900;2022-07-29T05:44:55;19.09;66.78
70676;DHT22;59069;52.242;20.900;2022-07-29T05:47:21;19.09;66.77
70676;DHT22;59069;52.242;20.900;2022-07-29T05:49:46;19.12;66.99
70676;DHT22;59069;52.242;20.900;2022-07-29T05:52:12;19.17;66.80
70676;DHT22;59069;52.242;20.900;2022-07-29T05:54:38;19.24;66.52
70676;DHT22;59069;52.242;20.900;2022-07-29T05:57:04;19.33;66.54
70676;DHT22;59069;52.242;20.900;2022-07-29T05:59:30;19.41;66.65
70676;DHT22;59069;52.242;20.900;2022-07-29T06:01:56;19.49;66.61
70676;DHT22;59069;52.242;20.900;2022-07-29T06:04:22;19.61;66.41
70676;DHT22;59069;52.242;20.900;2022-07-29T06:06:47;19.70;65.96
70676;DHT22;59069;52.242;20.900;2022-07-29T06:09:13;19.74;65.52
70676;DHT22;59069;52.242;20.900;2022-07-29T06:11:39;19.85;65.55
70676;DHT22;59069;52.242;20.900;2022-07-29T06:14:04;19.92;65.08
70676;DHT22;59069;52.242;20.900;2022-07-29T06:16:30;19.98;64.97
70676;DHT22;59069;52.242;20.900;2022-07-29T06:18:55;20.05;64.77
70676;DHT22;59069;52.242;20.900;2022-07-29T06:21:20;20.13;64.71
70676;DHT22;59069;52.242;20.900;2022-07-29T06:23:46;20.25;64.88
70676;DHT22;59069;52.242;20.900;2022-07-29T06:26:11;20.36;64.29
70676;DHT22;59069;52.242;20.900;2022-07-29T06:28:37;20.43;63.89
70676;DHT22;59069;52.242;20.900;2022-07-29T06:31:02;20.49;63.25
70676;DHT22;59069;52.242;20.900;2022-07-29T06:33:27;20.53;63.18
70676;DHT22;59069;52.242;20.900;2022-07-29T06:35:53;20.67;63.24
70676;DHT22;59069;52.242;20.900;2022-07-29T06:38:18;20.76;62.93
70676;DHT22;59069;52.242;20.900;2022-07-29T06:40:45;20.88;62.52
70676;DHT22;59069;52.242;20.900;2022-07-29T06:43:30;20.94;61.91
70676;DHT22;59069;52.242;20.900;2022-07-29T06:46:01;20.98;61.57
70676;DHT22;59069;52.242;20.900;2022-07-29T06:48:28;21.05;61.57
70676;DHT22;59069;52.242;20.900;2022-07-29T06:50:54;21.18;61.03
70676;DHT22;59069;52.242;20.900;2022-07-29T06:53:19;21.24;60.35
70676;DHT22;59069;52.242;20.900;2022-07-29T06:55:44;21.32;60.19
70676;DHT22;59069;52.242;20.900;2022-07-29T06:58:10;21.39;59.90
70676;DHT22;59069;52.242;20.900;2022-07-29T07:00:36;21.54;59.66
70676;DHT22;59069;52.242;20.900;2022-07-29T07:03:02;21.58;58.92
70676;DHT22;59069;52.242;20.900;2022-07-29T07:05:27;21.72;58.74
70676;DHT22;59069;52.242;20.900;2022-07-29T07:07:53;21.79;58.59
70676;DHT22;59069;52.242;20.900;2022-07-29T07:10:18;21.88;58.25
70676;DHT22;59069;52.242;20.900;2022-07-29T07:12:43;21.95;57.79
70676;DHT22;59069;52.242;20.900;2022-07-29T07:15:09;22.02;57.43
70676;DHT22;59069;52.242;20.900;2022-07-29T07:17:34;22.10;57.27
70676;DHT22;59069;52.242;20.900;2022-07-29T07:20:00;22.27;57.39
70676;DHT22;59069;52.242;20.900;2022-07-29T07:22:25;22.44;56.79
70676;DHT22;59069;52.242;20.900;2022-07-29T07:24:51;22.48;55.78
70676;DHT22;59069;52.242;20.900;2022-07-29T07:27:16;22.56;56.07
70676;DHT22;59069;52.242;20.900;2022-07-29T07:29:41;22.63;55.67
70676;DHT22;59069;52.242;20.900;2022-07-29T07:32:07;22.65;54.96
70676;DHT22;59069;52.242;20.900;2022-07-29T07:34:33;22.75;55.14
70676;DHT22;59069;52.242;20.900;2022-07-29T07:36:58;22.91;54.81
70676;DHT22;59069;52.242;20.900;2022-07-29T07:39:24;23.05;54.09
70676;DHT22;59069;52.242;20.900;2022-07-29T07:41:51;23.19;54.23
70676;DHT22;59069;52.242;20.900;2022-07-29T07:44:16;23.36;53.97
70676;DHT22;59069;52.242;20.900;2022-07-29T07:46:42;23.43;52.92
70676;DHT22;59069;52.242;20.900;2022-07-29T07:49:07;23.46;52.41
70676;DHT22;59069;52.242;20.900;2022-07-29T07:51:32;23.43;52.18
70676;DHT22;59069;52.242;20.900;2022-07-29T07:53:58;23.52;52.84
70676;DHT22;59069;52.242;20.900;2022-07-29T07:56:24;23.70;52.12
70676;DHT22;59069;52.242;20.900;2022-07-29T07:58:50;23.80;51.49
70676;DHT22;59069;52.242;20.900;2022-07-29T08:01:15;23.84;51.58
70676;DHT22;59069;52.242;20.900;2022-07-29T08:03:44;23.93;51.71
70676;DHT22;59069;52.242;20.900;2022-07-29T08:06:09;24.01;51.41
70676;DHT22;59069;52.242;20.900;2022-07-29T08:08:34;24.14;51.55
70676;DHT22;59069;52.242;20.900;2022-07-29T08:11:00;24.32;51.21
70676;DHT22;59069;52.242;20.900;2022-07-29T08:13:27;24.48;50.97
70676;DHT22;59069;52.242;20.900;2022-07-29T08:15:54;24.57;50.48
70676;DHT22;59069;52.242;20.900;2022-07-29T08:18:28;24.67;50.34
70676;DHT22;59069;52.242;20.900;2022-07-29T08:20:54;24.78;49.80
70676;DHT22;59069;52.242;20.900;2022-07-29T08:23:20;24.80;48.90
70676;DHT22;59069;52.242;20.900;2022-07-29T08:25:45;24.72;48.96
70676;DHT22;59069;52.242;20.900;2022-07-29T08:28:11;24.76;49.49
70676;DHT22;59069;52.242;20.900;2022-07-29T08:30:36;24.88;49.61
70676;DHT22;59069;52.242;20.900;2022-07-29T08:33:01;24.98;48.59
70676;DHT22;59069;52.242;20.900;2022-07-29T08:35:27;25.02;48.36
70676;DHT22;59069;52.242;20.900;2022-07-29T08:37:53;25.05;47.87
70676;DHT22;59069;52.242;20.900;2022-07-29T08:40:19;25.09;47.87
70676;DHT22;59069;52.242;20.900;2022-07-29T08:42:51;25.24;47.95
70676;DHT22;59069;52.242;20.900;2022-07-29T08:45:16;25.40;47.57
70676;DHT22;59069;52.242;20.900;2022-07-29T08:47:44;25.54;46.28
70676;DHT22;59069;52.242;20.900;2022-07-29T08:50:10;25.60;46.15
70676;DHT22;59069;52.242;20.900;2022-07-29T08:52:38;25.70;46.49
70676;DHT22;59069;52.242;20.900;2022-07-29T08:55:09;25.74;46.24
70676;DHT22;59069;52.242;20.900;2022-07-29T08:57:35;25.80;46.78
70676;DHT22;59069;52.242;20.900;2022-07-29T09:00:04;25.94;46.43
70676;DHT22;59069;52.242;20.900;2022-07-29T09:02:40;26.09;45.33
70676;DHT22;59069;52.242;20.900;2022-07-29T09:05:06;26.21;44.01
70676;DHT22;59069;52.242;20.900;2022-07-29T09:07:32;26.21;42.57
70676;DHT22;59069;52.242;20.900;2022-07-29T09:09:58;26.19;43.35
70676;DHT22;59069;52.242;20.900;2022-07-29T09:12:24;26.05;43.52
70676;DHT22;59069;52.242;20.900;2022-07-29T09:14:50;25.90;44.72
70676;DHT22;59069;52.242;20.900;2022-07-29T09:17:15;25.77;45.13
70676;DHT22;59069;52.242;20.900;2022-07-29T09:19:42;25.66;45.24
70676;DHT22;59069;52.242;20.900;2022-07-29T09:22:08;25.53;45.23
70676;DHT22;59069;52.242;20.900;2022-07-29T09:24:39;25.40;45.56
70676;DHT22;59069;52.242;20.900;2022-07-29T09:27:24;25.29;46.09
70676;DHT22;59069;52.242;20.900;2022-07-29T09:30:07;25.46;47.16
70676;DHT22;59069;52.242;20.900;2022-07-29T09:32:54;25.82;46.93
70676;DHT22;59069;52.242;20.900;2022-07-29T09:35:22;26.04;45.51
70676;DHT22;59069;52.242;20.900;2022-07-29T09:37:49;26.22;43.61
70676;DHT22;59069;52.242;20.900;2022-07-29T09:40:17;26.18;43.45
70676;DHT22;59069;52.242;20.900;2022-07-29T09:42:43;26.32;44.58
70676;DHT22;59069;52.242;20.900;2022-07-29T09:45:09;26.52;44.24
70676;DHT22;59069;52.242;20.900;2022-07-29T09:48:13;26.68;41.40
70676;DHT22;59069;52.242;20.900;2022-07-29T09:50:40;26.69;41.13
70676;DHT22;59069;52.242;20.900;2022-07-29T09:53:06;26.55;40.32
70676;DHT22;59069;52.242;20.900;2022-07-29T09:55:32;26.33;41.52
70676;DHT22;59069;52.242;20.900;2022-07-29T09:58:26;26.22;42.05
70676;DHT22;59069;52.242;20.900;2022-07-29T10:00:54;26.15;41.01
70676;DHT22;59069;52.242;20.900;2022-07-29T10:03:20;26.02;40.90
70676;DHT22;59069;52.242;20.900;2022-07-29T10:05:46;25.90;41.85
70676;DHT22;59069;52.242;20.900;2022-07-29T10:08:28;25.81;42.26
70676;DHT22;59069;52.242;20.900;2022-07-29T10:11:09;25.74;42.64
70676;DHT22;59069;52.242;20.900;2022-07-29T10:13:35;25.73;42.86
70676;DHT22;59069;52.242;20.900;2022-07-29T10:16:01;25.70;42.89
70676;DHT22;59069;52.242;20.900;2022-07-29T10:18:26;25.59;43.19
70676;DHT22;59069;52.242;20.900;2022-07-29T10:20:52;25.57;43.41
70676;DHT22;59069;52.242;20.900;2022-07-29T10:23:18;25.56;43.10
70676;DHT22;59069;52.242;20.900;2022-07-29T10:25:45;25.54;42.92
70676;DHT22;59069;52.242;20.900;2022-07-29T10:28:11;25.51;43.15
70676;DHT22;59069;52.242;20.900;2022-07-29T10:30:37;25.47;42.88
70676;DHT22;59069;52.242;20.900;2022-07-29T10:35:57;25.53;43.66
70676;DHT22;59069;52.242;20.900;2022-07-29T10:44:09;26.08;42.50
70676;DHT22;59069;52.242;20.900;2022-07-29T10:46:38;26.28;42.62
70676;DHT22;59069;52.242;20.900;2022-07-29T10:49:09;26.36;42.14
70676;DHT22;59069;52.242;20.900;2022-07-29T10:57:20;26.35;40.84
70676;DHT22;59069;52.242;20.900;2022-07-29T11:07:22;25.88;41.71
70676;DHT22;59069;52.242;20.900;2022-07-29T11:15:08;25.74;42.02
70676;DHT22;59069;52.242;20.900;2022-07-29T11:18:06;25.71;42.17
70676;DHT22;59069;52.242;20.900;2022-07-29T11:26:17;25.90;41.92
70676;DHT22;59069;52.242;20.900;2022-07-29T11:29:03;25.91;41.34
70676;DHT22;59069;52.242;20.900;2022-07-29T11:39:33;26.22;41.11
70676;DHT22;59069;52.242;20.900;2022-07-29T11:47:50;26.18;41.18
70676;DHT22;59069;52.242;20.900;2022-07-29T11:50:26;26.31;41.78
70676;DHT22;59069;52.242;20.900;2022-07-29T11:52:52;26.57;40.78
70676;DHT22;59069;52.242;20.900;2022-07-29T11:55:20;26.89;40.65
70676;DHT22;59069;52.242;20.900;2022-07-29T11:57:53;27.08;39.07
70676;DHT22;59069;52.242;20.900;2022-07-29T12:03:10;28.44;36.85
70676;DHT22;59069;52.242;20.900;2022-07-29T12:05:44;28.59;35.82
70676;DHT22;59069;52.242;20.900;2022-07-29T12:08:17;29.05;37.49
70676;DHT22;59069;52.242;20.900;2022-07-29T12:10:50;29.58;35.66
70676;DHT22;59069;52.242;20.900;2022-07-29T12:13:16;30.04;34.36
70676;DHT22;59069;52.242;20.900;2022-07-29T12:15:54;30.06;32.59
70676;DHT22;59069;52.242;20.900;2022-07-29T12:18:20;29.80;33.00
70676;DHT22;59069;52.242;20.900;2022-07-29T12:20:47;29.65;33.88
70676;DHT22;59069;52.242;20.900;2022-07-29T12:23:14;29.83;34.80
70676;DHT22;59069;52.242;20.900;2022-07-29T12:25:42;30.07;34.04
70676;DHT22;59069;52.242;20.900;2022-07-29T12:28:11;30.53;34.24
70676;DHT22;59069;52.242;20.900;2022-07-29T12:30:45;30.60;32.43
70676;DHT22;59069;52.242;20.900;2022-07-29T12:33:27;30.33;31.88
70676;DHT22;59069;52.242;20.900;2022-07-29T12:35:59;29.86;32.06
70676;DHT22;59069;52.242;20.900;2022-07-29T12:38:25;29.36;32.63
70676;DHT22;59069;52.242;20.900;2022-07-29T12:40:52;28.86;33.38
70676;DHT22;59069;52.242;20.900;2022-07-29T12:43:20;28.43;34.35
70676;DHT22;59069;52.242;20.900;2022-07-29T12:45:48;28.12;35.49
70676;DHT22;59069;52.242;20.900;2022-07-29T12:48:16;27.93;36.12
70676;DHT22;59069;52.242;20.900;2022-07-29T12:50:56;27.95;36.32
70676;DHT22;59069;52.242;20.900;2022-07-29T12:53:22;27.88;35.79
70676;DHT22;59069;52.242;20.900;2022-07-29T12:55:49;27.77;35.98
70676;DHT22;59069;52.242;20.900;2022-07-29T13:01:04;28.03;37.24
70676;DHT22;59069;52.242;20.900;2022-07-29T13:03:51;28.22;36.57
70676;DHT22;59069;52.242;20.900;2022-07-29T13:06:37;28.10;35.75
70676;DHT22;59069;52.242;20.900;2022-07-29T13:09:06;27.93;35.95
70676;DHT22;59069;52.242;20.900;2022-07-29T13:11:34;27.69;36.34
70676;DHT22;59069;52.242;20.900;2022-07-29T13:14:00;27.47;36.65
70676;DHT22;59069;52.242;20.900;2022-07-29T13:16:25;27.26;36.82
70676;DHT22;59069;52.242;20.900;2022-07-29T13:19:11;27.17;37.72
70676;DHT22;59069;52.242;20.900;2022-07-29T13:21:38;27.18;37.29
70676;DHT22;59069;52.242;20.900;2022-07-29T13:24:07;27.23;37.44
70676;DHT22;59069;52.242;20.900;2022-07-29T13:26:34;28.37;42.52
70676;DHT22;59069;52.242;20.900;2022-07-29T13:28:59;29.45;36.88
70676;DHT22;59069;52.242;20.900;2022-07-29T13:31:25;30.38;33.75
70676;DHT22;59069;52.242;20.900;2022-07-29T13:33:50;31.11;32.43
70676;DHT22;59069;52.242;20.900;2022-07-29T13:36:16;31.81;32.03
70676;DHT22;59069;52.242;20.900;2022-07-29T13:38:42;32.08;28.39
70676;DHT22;59069;52.242;20.900;2022-07-29T13:41:08;31.50;27.51
70676;DHT22;59069;52.242;20.900;2022-07-29T13:43:34;30.88;28.74
70676;DHT22;59069;52.242;20.900;2022-07-29T13:46:02;30.45;31.47
70676;DHT22;59069;52.242;20.900;2022-07-29T13:48:27;30.57;33.75
70676;DHT22;59069;52.242;20.900;2022-07-29T13:50:53;30.89;33.11
70676;DHT22;59069;52.242;20.900;2022-07-29T13:53:18;31.35;31.38
70676;DHT22;59069;52.242;20.900;2022-07-29T13:55:44;31.51;30.23
70676;DHT22;59069;52.242;20.900;2022-07-29T13:58:09;31.53;29.60
70676;DHT22;59069;52.242;20.900;2022-07-29T14:00:34;31.57;29.72
70676;DHT22;59069;52.242;20.900;2022-07-29T14:03:00;31.33;28.34
70676;DHT22;59069;52.242;20.900;2022-07-29T14:05:25;31.08;29.95
70676;DHT22;59069;52.242;20.900;2022-07-29T14:07:51;30.92;30.65
70676;DHT22;59069;52.242;20.900;2022-07-29T14:10:16;30.86;30.66
70676;DHT22;59069;52.242;20.900;2022-07-29T14:12:41;30.82;30.41
70676;DHT22;59069;52.242;20.900;2022-07-29T14:15:07;30.61;29.99
70676;DHT22;59069;52.242;20.900;2022-07-29T14:17:33;30.28;30.60
70676;DHT22;59069;52.242;20.900;2022-07-29T14:19:59;30.00;31.06
70676;DHT22;59069;52.242;20.900;2022-07-29T14:22:24;29.59;31.70
70676;DHT22;59069;52.242;20.900;2022-07-29T14:24:50;29.28;32.26
70676;DHT22;59069;52.242;20.900;2022-07-29T14:27:15;29.07;32.49
70676;DHT22;59069;52.242;20.900;2022-07-29T14:29:41;28.95;32.87
70676;DHT22;59069;52.242;20.900;2022-07-29T14:32:07;28.91;33.14
70676;DHT22;59069;52.242;20.900;2022-07-29T14:34:34;28.87;33.38
70676;DHT22;59069;52.242;20.900;2022-07-29T14:36:59;28.80;33.29
70676;DHT22;59069;52.242;20.900;2022-07-29T14:39:24;28.75;33.48
70676;DHT22;59069;52.242;20.900;2022-07-29T14:41:50;28.68;33.33
70676;DHT22;59069;52.242;20.900;2022-07-29T14:44:17;28.71;33.61
70676;DHT22;59069;52.242;20.900;2022-07-29T14:46:43;28.74;33.81
70676;DHT22;59069;52.242;20.900;2022-07-29T14:49:08;28.67;33.22
70676;DHT22;59069;52.242;20.900;2022-07-29T14:51:33;28.73;33.24
70676;DHT22;59069;52.242;20.900;2022-07-29T14:53:59;28.63;33.22
70676;DHT22;59069;52.242;20.900;2022-07-29T14:56:24;28.64;33.34
70676;DHT22;59069;52.242;20.900;2022-07-29T14:58:50;28.64;33.31
70676;DHT22;59069;52.242;20.900;2022-07-29T15:01:15;28.64;33.34
70676;DHT22;59069;52.242;20.900;2022-07-29T15:03:40;28.63;33.35
70676;DHT22;59069;52.242;20.900;2022-07-29T15:06:06;28.59;33.54
70676;DHT22;59069;52.242;20.900;2022-07-29T15:08:31;28.54;33.32
70676;DHT22;59069;52.242;20.900;2022-07-29T15:10:57;28.47;33.16
70676;DHT22;59069;52.242;20.900;2022-07-29T15:13:24;28.40;33.01
70676;DHT22;59069;52.242;20.900;2022-07-29T15:15:50;28.35;33.18
70676;DHT22;59069;52.242;20.900;2022-07-29T15:18:15;28.30;33.27
70676;DHT22;59069;52.242;20.900;2022-07-29T15:20:41;28.29;33.09
70676;DHT22;59069;52.242;20.900;2022-07-29T15:23:06;28.17;33.17
70676;DHT22;59069;52.242;20.900;2022-07-29T15:25:34;28.13;33.59
70676;DHT22;59069;52.242;20.900;2022-07-29T15:28:01;28.10;33.78
70676;DHT22;59069;52.242;20.900;2022-07-29T15:30:30;28.01;33.76
70676;DHT22;59069;52.242;20.900;2022-07-29T15:32:55;27.84;33.30
70676;DHT22;59069;52.242;20.900;2022-07-29T15:35:21;27.69;33.58
70676;DHT22;59069;52.242;20.900;2022-07-29T15:37:46;27.51;34.36
70676;DHT22;59069;52.242;20.900;2022-07-29T15:40:11;27.41;34.46
70676;DHT22;59069;52.242;20.900;2022-07-29T15:42:37;27.38;34.63
70676;DHT22;59069;52.242;20.900;2022-07-29T15:45:03;27.31;34.68
70676;DHT22;59069;52.242;20.900;2022-07-29T15:47:29;27.21;34.63
70676;DHT22;59069;52.242;20.900;2022-07-29T15:49:55;27.15;35.02
70676;DHT22;59069;52.242;20.900;2022-07-29T15:52:20;27.06;34.95
70676;DHT22;59069;52.242;20.900;2022-07-29T15:54:46;27.03;35.05
70676;DHT22;59069;52.242;20.900;2022-07-29T15:57:12;26.94;35.11
70676;DHT22;59069;52.242;20.900;2022-07-29T15:59:37;26.90;35.24
70676;DHT22;59069;52.242;20.900;2022-07-29T16:02:03;26.87;35.37
70676;DHT22;59069;52.242;20.900;2022-07-29T16:04:29;26.78;35.42
70676;DHT22;59069;52.242;20.900;2022-07-29T16:06:56;26.78;35.39
70676;DHT22;59069;52.242;20.900;2022-07-29T16:09:22;26.75;35.60
70676;DHT22;59069;52.242;20.900;2022-07-29T16:11:48;26.63;35.64
70676;DHT22;59069;52.242;20.900;2022-07-29T16:14:17;26.43;35.79
70676;DHT22;59069;52.242;20.900;2022-07-29T16:16:43;26.26;35.85
70676;DHT22;59069;52.242;20.900;2022-07-29T16:19:09;26.12;36.17
70676;DHT22;59069;52.242;20.900;2022-07-29T16:21:35;25.95;36.32